createdAt,value
2022-10-29T00:00:00.296Z,3.1
2022-10-29T00:05:00.229Z,4.5
2022-10-29T00:10:00.264Z,3.5
2022-10-29T00:15:00.274Z,3.2
2022-10-29T00:20:00.372Z,4.5
2022-10-29T00:25:00.248Z,6.9
2022-10-29T00:30:00.403Z,4.2
2022-10-29T00:35:00.239Z,6.5
2022-10-29T00:40:00.282Z,5.4
2022-10-29T00:45:00.289Z,5.9
2022-10-29T00:50:00.284Z,3.4
2022-10-29T00:55:00.213Z,4.4
2022-10-29T01:00:00.480Z,2.9
2022-10-29T01:05:00.233Z,3.4
2022-10-29T01:10:00.277Z,3.4
2022-10-29T01:15:00.272Z,1.9
2022-10-29T01:20:00.262Z,3.1
2022-10-29T01:25:00.220Z,2.0
2022-10-29T01:30:00.288Z,1.9
2022-10-29T01:35:00.266Z,1.9
2022-10-29T01:40:00.241Z,2.8
2022-10-29T01:45:00.354Z,3.6
2022-10-29T01:50:00.266Z,1.0
2022-10-29T01:55:00.256Z,2.0
2022-10-29T02:00:00.303Z,0.7
2022-10-29T02:05:00.271Z,0.9
2022-10-29T02:10:00.266Z,1.7
2022-10-29T02:15:00.250Z,1.5
2022-10-29T02:20:00.273Z,2.0
2022-10-29T02:25:00.371Z,1.8
2022-10-29T02:30:00.275Z,2.2
2022-10-29T02:35:00.226Z,2.6
2022-10-29T02:40:00.275Z,1.8
2022-10-29T02:45:00.262Z,1.6
2022-10-29T02:50:00.270Z,1.7
2022-10-29T02:55:00.242Z,2.8
2022-10-29T03:00:00.308Z,3.3
2022-10-29T03:05:00.244Z,1.6
2022-10-29T03:10:00.252Z,1.4
2022-10-29T03:15:00.247Z,1.7
2022-10-29T03:20:00.288Z,3.4
2022-10-29T03:25:00.234Z,2.6
2022-10-29T03:30:00.300Z,3.6
2022-10-29T03:35:00.298Z,3.5
2022-10-29T03:40:00.264Z,4.2
2022-10-29T03:45:00.283Z,3.9
2022-10-29T03:50:00.261Z,3.0
2022-10-29T03:55:00.250Z,1.3
2022-10-29T04:00:00.282Z,2.1
2022-10-29T04:05:00.240Z,1.4
2022-10-29T04:10:00.264Z,1.6
2022-10-29T04:15:00.288Z,1.1
2022-10-29T04:20:00.254Z,0.7
2022-10-29T04:30:00.559Z,1.7
2022-10-29T04:35:00.235Z,2.1
2022-10-29T04:40:00.243Z,2.1
2022-10-29T04:45:00.255Z,0.3
2022-10-29T04:50:00.293Z,0.0
2022-10-29T04:55:00.282Z,0.3
2022-10-29T05:00:00.338Z,0.8
2022-10-29T05:05:00.250Z,0.2
2022-10-29T05:10:00.288Z,0.8
2022-10-29T05:15:00.306Z,1.8
2022-10-29T05:20:00.260Z,1.2
2022-10-29T05:25:00.220Z,2.5
2022-10-29T05:30:00.278Z,2.1
2022-10-29T05:35:00.255Z,3.2
2022-10-29T05:40:00.251Z,1.1
2022-10-29T05:45:00.253Z,1.2
2022-10-29T05:50:00.279Z,1.6
2022-10-29T05:55:00.239Z,1.9
2022-10-29T06:00:00.351Z,1.1
2022-10-29T06:05:00.232Z,0.3
2022-10-29T06:10:00.282Z,0.2
2022-10-29T06:15:00.323Z,1.1
2022-10-29T06:20:00.423Z,1.0
2022-10-29T06:25:00.388Z,0.7
2022-10-29T06:30:00.314Z,0.1
2022-10-29T06:35:00.253Z,0.0
2022-10-29T06:40:00.295Z,0.6
2022-10-29T06:45:00.247Z,0.6
2022-10-29T06:50:00.265Z,0.4
2022-10-29T06:55:00.266Z,0.4
2022-10-29T07:00:08.601Z,0.2
2022-10-29T07:05:00.268Z,1.1
2022-10-29T07:10:00.286Z,0.2
2022-10-29T07:15:00.234Z,0.4
2022-10-29T07:20:00.288Z,1.7
2022-10-29T07:25:01.576Z,1.0
2022-10-29T07:30:00.263Z,0.9
2022-10-29T07:35:00.253Z,2.0
2022-10-29T07:40:00.434Z,1.8
2022-10-29T07:45:00.243Z,2.1
2022-10-29T07:50:00.306Z,2.4
2022-10-29T07:55:00.240Z,3.0
2022-10-29T08:00:00.274Z,0.8
2022-10-29T08:05:00.258Z,1.7
2022-10-29T08:10:00.243Z,2.7
2022-10-29T08:15:00.223Z,2.5
2022-10-29T08:20:00.268Z,1.6
2022-10-29T08:25:00.240Z,3.0
2022-10-29T08:30:00.278Z,2.7
2022-10-29T08:35:00.264Z,1.9
2022-10-29T08:40:00.268Z,1.0
2022-10-29T08:45:00.223Z,0.4
2022-10-29T08:50:00.277Z,0.9
2022-10-29T08:55:00.249Z,5.0
2022-10-29T09:00:00.499Z,3.4
2022-10-29T09:05:00.239Z,1.0
2022-10-29T09:10:00.248Z,1.4
2022-10-29T09:15:00.227Z,4.6
2022-10-29T09:20:00.265Z,2.1
2022-10-29T09:25:00.253Z,1.4
2022-10-29T09:30:00.276Z,2.9
2022-10-29T09:35:00.222Z,2.5
2022-10-29T09:40:00.280Z,4.2
2022-10-29T09:45:00.227Z,3.3
2022-10-29T09:50:08.655Z,1.0
2022-10-29T09:55:00.244Z,3.5
2022-10-29T10:00:00.311Z,1.4
2022-10-29T10:05:00.379Z,2.4
2022-10-29T10:10:00.274Z,2.7
2022-10-29T10:15:00.254Z,3.7
2022-10-29T10:20:00.265Z,3.7
2022-10-29T10:25:00.231Z,1.8
2022-10-29T10:30:00.316Z,0.7
2022-10-29T10:35:00.251Z,2.9
2022-10-29T10:40:00.420Z,1.0
2022-10-29T10:45:00.247Z,1.5
2022-10-29T10:50:00.277Z,1.8
2022-10-29T10:55:00.283Z,2.1
2022-10-29T11:00:00.336Z,1.6
2022-10-29T11:05:06.958Z,1.7
2022-10-29T11:10:00.291Z,0.5
2022-10-29T11:15:00.251Z,1.7
2022-10-29T11:20:00.305Z,0.4
2022-10-29T11:25:00.322Z,1.0
2022-10-29T11:30:00.309Z,2.2
2022-10-29T11:35:00.266Z,1.2
2022-10-29T11:40:00.307Z,4.6
2022-10-29T11:45:00.334Z,2.6
2022-10-29T11:50:00.345Z,3.1
2022-10-29T11:55:00.281Z,2.0
2022-10-29T12:00:00.312Z,0.9
2022-10-29T12:05:00.243Z,1.0
2022-10-29T12:10:00.340Z,1.9
2022-10-29T12:15:00.241Z,0.1
2022-10-29T12:20:00.443Z,0.3
2022-10-29T12:25:00.293Z,1.8
2022-10-29T12:30:00.308Z,1.7
2022-10-29T12:35:00.235Z,0.1
2022-10-29T12:40:00.252Z,0.7
2022-10-29T12:45:00.262Z,1.1
2022-10-29T12:50:00.279Z,3.6
2022-10-29T12:55:00.393Z,3.4
2022-10-29T13:00:00.285Z,3.3
2022-10-29T13:05:00.253Z,2.3
2022-10-29T13:10:00.276Z,2.8
2022-10-29T13:15:00.252Z,3.1
2022-10-29T13:20:00.326Z,3.1
2022-10-29T13:25:00.264Z,1.6
2022-10-29T13:30:00.270Z,1.7
2022-10-29T13:35:00.284Z,2.2
2022-10-29T13:40:00.322Z,2.1
2022-10-29T13:45:00.238Z,0.6
2022-10-29T13:50:00.270Z,0.2
2022-10-29T13:55:00.583Z,3.3
2022-10-29T14:00:00.270Z,2.5
2022-10-29T14:05:00.256Z,0.4
2022-10-29T14:10:00.275Z,1.1
2022-10-29T14:15:00.283Z,0.7
2022-10-29T14:20:00.269Z,0.2
2022-10-29T14:25:00.263Z,1.3
2022-10-29T14:30:00.265Z,0.0
2022-10-29T14:35:00.255Z,0.0
2022-10-29T14:40:00.285Z,0.0
2022-10-29T14:45:00.251Z,0.0
2022-10-29T14:50:00.268Z,0.0
2022-10-29T14:55:00.407Z,0.0
2022-10-29T15:00:00.276Z,0.0
2022-10-29T15:05:07.389Z,0.0
2022-10-29T15:10:00.274Z,0.0
2022-10-29T15:15:00.289Z,0.0
2022-10-29T15:20:00.275Z,0.0
2022-10-29T15:25:00.250Z,0.0
2022-10-29T15:30:00.276Z,0.0
2022-10-29T15:35:00.245Z,0.0
2022-10-29T15:40:00.275Z,0.0
2022-10-29T15:45:00.466Z,0.0
2022-10-29T15:50:00.325Z,0.0
2022-10-29T15:55:00.270Z,0.0
2022-10-29T16:00:00.538Z,0.0
2022-10-29T16:05:00.238Z,0.0
2022-10-29T16:10:00.497Z,0.0
2022-10-29T16:15:00.307Z,0.0
2022-10-29T16:20:00.612Z,0.0
2022-10-29T16:25:00.218Z,0.0
2022-10-29T16:30:00.285Z,0.0
2022-10-29T16:35:00.247Z,0.0
2022-10-29T16:40:00.241Z,0.0
2022-10-29T16:45:00.268Z,0.0
2022-10-29T16:50:00.265Z,0.0
2022-10-29T16:55:00.289Z,0.0
2022-10-29T17:00:00.314Z,0.0
2022-10-29T17:05:00.221Z,0.0
2022-10-29T17:10:00.240Z,0.0
2022-10-29T17:15:00.264Z,0.0
2022-10-29T17:20:00.301Z,0.0
2022-10-29T17:25:00.219Z,0.0
2022-10-29T17:30:00.344Z,0.0
2022-10-29T17:35:00.249Z,0.0
2022-10-29T17:40:08.005Z,0.0
2022-10-29T17:45:00.282Z,0.0
2022-10-29T17:50:00.236Z,0.0
2022-10-29T17:55:00.227Z,0.0
2022-10-29T18:00:00.273Z,0.0
2022-10-29T18:05:00.253Z,0.0
2022-10-29T18:10:00.266Z,0.0
2022-10-29T18:15:00.316Z,0.0
2022-10-29T18:20:00.272Z,0.0
2022-10-29T18:25:00.239Z,0.0
2022-10-29T18:30:00.320Z,0.0
2022-10-29T18:35:00.235Z,0.0
2022-10-29T18:40:00.269Z,0.0
2022-10-29T18:45:00.259Z,0.0
2022-10-29T18:50:00.279Z,0.0
2022-10-29T18:55:00.473Z,0.0
2022-10-29T19:00:00.294Z,0.0
2022-10-29T19:05:00.251Z,0.0
2022-10-29T19:10:00.268Z,0.0
2022-10-29T19:15:00.265Z,0.0
2022-10-29T19:20:00.263Z,0.0
2022-10-29T19:25:00.247Z,0.0
2022-10-29T19:30:00.321Z,0.0
2022-10-29T19:35:00.242Z,0.0
2022-10-29T19:40:00.269Z,0.0
2022-10-29T19:45:00.269Z,0.0
2022-10-29T19:50:00.264Z,0.0
2022-10-29T19:55:00.320Z,0.0
2022-10-29T20:00:00.303Z,0.0
2022-10-29T20:05:00.255Z,0.0
2022-10-29T20:10:00.237Z,0.0
2022-10-29T20:15:00.250Z,0.0
2022-10-29T20:20:00.276Z,0.0
2022-10-29T20:25:00.249Z,0.0
2022-10-29T20:30:00.304Z,0.0
2022-10-29T20:35:00.283Z,0.0
2022-10-29T20:40:00.275Z,0.0
2022-10-29T20:45:00.282Z,0.0
2022-10-29T20:50:00.269Z,0.0
2022-10-29T20:55:00.211Z,0.0
2022-10-29T21:00:00.319Z,0.0
2022-10-29T21:05:00.238Z,0.0
2022-10-29T21:10:00.276Z,0.0
2022-10-29T21:15:00.250Z,0.0
2022-10-29T21:20:00.259Z,0.0
2022-10-29T21:25:00.296Z,0.0
2022-10-29T21:30:00.359Z,0.0
2022-10-29T21:35:00.263Z,0.0
2022-10-29T21:40:06.228Z,0.0
2022-10-29T21:45:00.267Z,0.0
2022-10-29T21:50:00.254Z,0.0
2022-10-29T21:55:00.244Z,0.3
2022-10-29T22:00:00.355Z,0.0
2022-10-29T22:05:00.260Z,0.0
2022-10-29T22:10:00.252Z,0.0
2022-10-29T22:15:00.279Z,0.0
2022-10-29T22:20:00.308Z,0.0
2022-10-29T22:25:00.248Z,0.0
2022-10-29T22:30:00.285Z,0.0
2022-10-29T22:35:00.207Z,0.0
2022-10-29T22:40:00.273Z,0.0
2022-10-29T22:45:00.271Z,0.0
2022-10-29T22:50:00.263Z,0.0
2022-10-29T22:55:00.228Z,0.0
2022-10-29T23:00:00.447Z,0.0
2022-10-29T23:05:00.269Z,0.0
2022-10-29T23:10:00.242Z,0.0
2022-10-29T23:15:00.243Z,0.0
2022-10-29T23:20:00.309Z,0.0
2022-10-29T23:25:00.199Z,0.0
2022-10-29T23:30:00.319Z,0.0
2022-10-29T23:35:00.227Z,0.0
2022-10-29T23:40:00.287Z,0.0
2022-10-29T23:45:08.005Z,0.0
2022-10-29T23:50:00.276Z,0.0
2022-10-29T23:55:00.225Z,0.0
